Terminal Aerodrome Forecast
Issued by NWS

Home | Current Version | Previous Version | Text Only | Print | Product List | Glossary Off
Versions: 1 2 3 4 5 6 7 8 9 10 11 12 13 14

000
FTUS42 KMHX 271741
TAFISO
TAF
KISO 271741Z 2718/2818 19011G19KT P6SM -RA VCTS BKN035CB
     FM280100 21010KT P6SM VCTS BKN030CB
     FM280800 27007KT P6SM BKN050
      AMD LTD TO CLD VIS AND WIND=

USA.gov is the U.S. government's official web portal to all federal, state and local government web resources and services.